sensor_id;sensor_type;location;lat;lon;timestamp;P1;durP1;ratioP1;P2;durP2;ratioP2
54428;SDS011;40337;52.978;6.310;2024-03-02T00:00:06;4.32;;;3.00;;
54428;SDS011;40337;52.978;6.310;2024-03-02T00:02:45;5.68;;;3.20;;
54428;SDS011;40337;52.978;6.310;2024-03-02T00:05:11;4.93;;;3.35;;
54428;SDS011;40337;52.978;6.310;2024-03-02T00:07:41;5.38;;;3.25;;
54428;SDS011;40337;52.978;6.310;2024-03-02T00:10:08;5.05;;;3.35;;
54428;SDS011;40337;52.978;6.310;2024-03-02T00:12:39;4.90;;;3.10;;
54428;SDS011;40337;52.978;6.310;2024-03-02T00:15:05;4.72;;;3.30;;
54428;SDS011;40337;52.978;6.310;2024-03-02T00:17:52;5.80;;;3.30;;
54428;SDS011;40337;52.978;6.310;2024-03-02T00:20:18;4.40;;;3.17;;
54428;SDS011;40337;52.978;6.310;2024-03-02T00:22:47;4.40;;;3.00;;
54428;SDS011;40337;52.978;6.310;2024-03-02T00:25:13;4.38;;;3.00;;
54428;SDS011;40337;52.978;6.310;2024-03-02T00:27:38;5.18;;;3.10;;
54428;SDS011;40337;52.978;6.310;2024-03-02T00:33:00;5.45;;;3.00;;
54428;SDS011;40337;52.978;6.310;2024-03-02T00:35:26;6.03;;;3.22;;
54428;SDS011;40337;52.978;6.310;2024-03-02T00:37:51;5.20;;;2.97;;
54428;SDS011;40337;52.978;6.310;2024-03-02T00:40:17;4.22;;;2.53;;
54428;SDS011;40337;52.978;6.310;2024-03-02T00:42:44;4.78;;;3.22;;
54428;SDS011;40337;52.978;6.310;2024-03-02T00:45:09;4.75;;;2.80;;
54428;SDS011;40337;52.978;6.310;2024-03-02T00:47:41;4.53;;;2.80;;
54428;SDS011;40337;52.978;6.310;2024-03-02T00:50:07;4.95;;;3.00;;
54428;SDS011;40337;52.978;6.310;2024-03-02T00:52:34;4.38;;;2.78;;
54428;SDS011;40337;52.978;6.310;2024-03-02T00:54:59;5.40;;;2.85;;
54428;SDS011;40337;52.978;6.310;2024-03-02T00:57:25;4.13;;;2.72;;
54428;SDS011;40337;52.978;6.310;2024-03-02T00:59:54;4.38;;;2.40;;
54428;SDS011;40337;52.978;6.310;2024-03-02T01:02:20;4.30;;;2.60;;
54428;SDS011;40337;52.978;6.310;2024-03-02T01:04:46;3.97;;;2.65;;
54428;SDS011;40337;52.978;6.310;2024-03-02T01:07:12;5.00;;;3.00;;
54428;SDS011;40337;52.978;6.310;2024-03-02T01:09:37;4.97;;;3.15;;
54428;SDS011;40337;52.978;6.310;2024-03-02T01:12:03;5.05;;;3.05;;
54428;SDS011;40337;52.978;6.310;2024-03-02T01:14:29;3.70;;;2.42;;
54428;SDS011;40337;52.978;6.310;2024-03-02T01:16:55;5.18;;;2.90;;
54428;SDS011;40337;52.978;6.310;2024-03-02T01:19:21;4.30;;;2.70;;
54428;SDS011;40337;52.978;6.310;2024-03-02T01:21:46;4.35;;;2.88;;
54428;SDS011;40337;52.978;6.310;2024-03-02T01:24:12;4.13;;;2.70;;
54428;SDS011;40337;52.978;6.310;2024-03-02T01:26:38;4.60;;;2.70;;
54428;SDS011;40337;52.978;6.310;2024-03-02T01:29:04;4.82;;;2.80;;
54428;SDS011;40337;52.978;6.310;2024-03-02T01:31:29;4.45;;;2.63;;
54428;SDS011;40337;52.978;6.310;2024-03-02T01:33:55;5.20;;;2.55;;
54428;SDS011;40337;52.978;6.310;2024-03-02T01:36:21;4.13;;;2.47;;
54428;SDS011;40337;52.978;6.310;2024-03-02T01:38:46;5.95;;;2.67;;
54428;SDS011;40337;52.978;6.310;2024-03-02T01:41:12;4.47;;;2.70;;
54428;SDS011;40337;52.978;6.310;2024-03-02T01:43:38;5.30;;;2.72;;
54428;SDS011;40337;52.978;6.310;2024-03-02T01:46:04;4.07;;;2.80;;
54428;SDS011;40337;52.978;6.310;2024-03-02T01:48:29;4.55;;;2.80;;
54428;SDS011;40337;52.978;6.310;2024-03-02T01:50:55;6.40;;;2.75;;
54428;SDS011;40337;52.978;6.310;2024-03-02T01:53:21;7.07;;;2.95;;
54428;SDS011;40337;52.978;6.310;2024-03-02T01:55:47;4.55;;;3.08;;
54428;SDS011;40337;52.978;6.310;2024-03-02T01:58:12;4.68;;;2.70;;
54428;SDS011;40337;52.978;6.310;2024-03-02T02:00:38;4.82;;;2.67;;
54428;SDS011;40337;52.978;6.310;2024-03-02T02:03:04;4.95;;;2.90;;
54428;SDS011;40337;52.978;6.310;2024-03-02T02:05:29;4.25;;;3.05;;
54428;SDS011;40337;52.978;6.310;2024-03-02T02:07:56;4.20;;;2.95;;
54428;SDS011;40337;52.978;6.310;2024-03-02T02:10:23;5.07;;;2.85;;
54428;SDS011;40337;52.978;6.310;2024-03-02T02:12:49;4.78;;;2.80;;
54428;SDS011;40337;52.978;6.310;2024-03-02T02:15:48;6.32;;;2.75;;
54428;SDS011;40337;52.978;6.310;2024-03-02T02:18:07;4.50;;;2.78;;
54428;SDS011;40337;52.978;6.310;2024-03-02T02:20:32;3.85;;;2.58;;
54428;SDS011;40337;52.978;6.310;2024-03-02T02:22:59;3.90;;;2.70;;
54428;SDS011;40337;52.978;6.310;2024-03-02T02:25:26;4.82;;;2.70;;
54428;SDS011;40337;52.978;6.310;2024-03-02T02:27:53;4.78;;;2.95;;
54428;SDS011;40337;52.978;6.310;2024-03-02T02:30:19;5.35;;;3.10;;
54428;SDS011;40337;52.978;6.310;2024-03-02T02:32:46;6.32;;;2.85;;
54428;SDS011;40337;52.978;6.310;2024-03-02T02:35:12;4.00;;;2.75;;
54428;SDS011;40337;52.978;6.310;2024-03-02T02:37:37;3.75;;;2.50;;
54428;SDS011;40337;52.978;6.310;2024-03-02T02:40:04;6.25;;;2.95;;
54428;SDS011;40337;52.978;6.310;2024-03-02T02:42:30;3.83;;;2.38;;
54428;SDS011;40337;52.978;6.310;2024-03-02T02:44:55;4.43;;;2.70;;
54428;SDS011;40337;52.978;6.310;2024-03-02T02:47:21;4.05;;;2.70;;
54428;SDS011;40337;52.978;6.310;2024-03-02T02:49:47;3.20;;;2.13;;
54428;SDS011;40337;52.978;6.310;2024-03-02T02:52:12;4.72;;;2.38;;
54428;SDS011;40337;52.978;6.310;2024-03-02T02:54:38;3.67;;;2.30;;
54428;SDS011;40337;52.978;6.310;2024-03-02T02:57:03;4.35;;;2.22;;
54428;SDS011;40337;52.978;6.310;2024-03-02T02:59:29;3.72;;;2.30;;
54428;SDS011;40337;52.978;6.310;2024-03-02T03:01:55;4.03;;;2.67;;
54428;SDS011;40337;52.978;6.310;2024-03-02T03:04:20;4.00;;;2.38;;
54428;SDS011;40337;52.978;6.310;2024-03-02T03:06:46;4.75;;;2.63;;
54428;SDS011;40337;52.978;6.310;2024-03-02T03:09:12;3.70;;;2.10;;
54428;SDS011;40337;52.978;6.310;2024-03-02T03:11:37;3.70;;;2.38;;
54428;SDS011;40337;52.978;6.310;2024-03-02T03:14:03;4.35;;;2.33;;
54428;SDS011;40337;52.978;6.310;2024-03-02T03:16:30;5.40;;;2.40;;
54428;SDS011;40337;52.978;6.310;2024-03-02T03:18:55;4.10;;;2.13;;
54428;SDS011;40337;52.978;6.310;2024-03-02T03:21:21;3.85;;;2.40;;
54428;SDS011;40337;52.978;6.310;2024-03-02T03:23:47;4.82;;;2.53;;
54428;SDS011;40337;52.978;6.310;2024-03-02T03:26:12;3.83;;;2.55;;
54428;SDS011;40337;52.978;6.310;2024-03-02T03:28:38;4.47;;;2.80;;
54428;SDS011;40337;52.978;6.310;2024-03-02T03:31:04;4.53;;;2.58;;
54428;SDS011;40337;52.978;6.310;2024-03-02T03:33:29;3.92;;;2.50;;
54428;SDS011;40337;52.978;6.310;2024-03-02T03:35:55;3.60;;;2.47;;
54428;SDS011;40337;52.978;6.310;2024-03-02T03:38:21;4.63;;;2.60;;
54428;SDS011;40337;52.978;6.310;2024-03-02T03:40:46;4.38;;;2.38;;
54428;SDS011;40337;52.978;6.310;2024-03-02T03:43:12;4.88;;;2.33;;
54428;SDS011;40337;52.978;6.310;2024-03-02T03:45:38;4.03;;;2.35;;
54428;SDS011;40337;52.978;6.310;2024-03-02T03:48:04;4.72;;;2.50;;
54428;SDS011;40337;52.978;6.310;2024-03-02T03:50:30;4.53;;;2.67;;
54428;SDS011;40337;52.978;6.310;2024-03-02T03:52:55;4.80;;;2.50;;
54428;SDS011;40337;52.978;6.310;2024-03-02T03:55:21;3.58;;;2.30;;
54428;SDS011;40337;52.978;6.310;2024-03-02T03:57:46;3.72;;;2.25;;
54428;SDS011;40337;52.978;6.310;2024-03-02T04:00:12;4.38;;;2.42;;
54428;SDS011;40337;52.978;6.310;2024-03-02T04:02:38;4.35;;;2.33;;
54428;SDS011;40337;52.978;6.310;2024-03-02T04:05:04;4.05;;;2.45;;
54428;SDS011;40337;52.978;6.310;2024-03-02T04:07:34;4.53;;;2.58;;
54428;SDS011;40337;52.978;6.310;2024-03-02T04:10:05;4.32;;;2.50;;
54428;SDS011;40337;52.978;6.310;2024-03-02T04:12:33;4.82;;;2.53;;
54428;SDS011;40337;52.978;6.310;2024-03-02T04:14:59;5.55;;;2.90;;
54428;SDS011;40337;52.978;6.310;2024-03-02T04:17:26;3.47;;;2.50;;
54428;SDS011;40337;52.978;6.310;2024-03-02T04:19:52;4.72;;;2.85;;
54428;SDS011;40337;52.978;6.310;2024-03-02T04:22:17;4.15;;;2.88;;
54428;SDS011;40337;52.978;6.310;2024-03-02T04:24:43;4.45;;;2.70;;
54428;SDS011;40337;52.978;6.310;2024-03-02T04:27:10;3.38;;;2.28;;
54428;SDS011;40337;52.978;6.310;2024-03-02T04:29:36;4.70;;;2.80;;
54428;SDS011;40337;52.978;6.310;2024-03-02T04:32:02;4.00;;;2.53;;
54428;SDS011;40337;52.978;6.310;2024-03-02T04:34:27;4.38;;;2.50;;
54428;SDS011;40337;52.978;6.310;2024-03-02T04:36:53;5.60;;;2.92;;
54428;SDS011;40337;52.978;6.310;2024-03-02T04:39:18;4.38;;;3.00;;
54428;SDS011;40337;52.978;6.310;2024-03-02T04:41:44;4.68;;;2.78;;
54428;SDS011;40337;52.978;6.310;2024-03-02T04:44:10;4.80;;;2.80;;
54428;SDS011;40337;52.978;6.310;2024-03-02T04:46:35;4.57;;;2.67;;
54428;SDS011;40337;52.978;6.310;2024-03-02T04:49:01;5.10;;;2.97;;
54428;SDS011;40337;52.978;6.310;2024-03-02T04:51:26;5.85;;;3.08;;
54428;SDS011;40337;52.978;6.310;2024-03-02T04:53:52;4.55;;;2.90;;
54428;SDS011;40337;52.978;6.310;2024-03-02T04:56:18;4.72;;;3.10;;
54428;SDS011;40337;52.978;6.310;2024-03-02T04:59:02;3.92;;;2.88;;
54428;SDS011;40337;52.978;6.310;2024-03-02T05:01:27;4.85;;;2.97;;
54428;SDS011;40337;52.978;6.310;2024-03-02T05:03:53;5.03;;;3.00;;
54428;SDS011;40337;52.978;6.310;2024-03-02T05:06:19;4.28;;;2.78;;
54428;SDS011;40337;52.978;6.310;2024-03-02T05:08:45;4.80;;;2.58;;
54428;SDS011;40337;52.978;6.310;2024-03-02T05:11:10;5.78;;;2.90;;
54428;SDS011;40337;52.978;6.310;2024-03-02T05:14:13;4.95;;;2.78;;
54428;SDS011;40337;52.978;6.310;2024-03-02T05:16:39;5.30;;;3.03;;
54428;SDS011;40337;52.978;6.310;2024-03-02T05:19:06;3.70;;;2.63;;
54428;SDS011;40337;52.978;6.310;2024-03-02T05:21:32;4.95;;;2.50;;
54428;SDS011;40337;52.978;6.310;2024-03-02T05:23:58;4.43;;;2.40;;
54428;SDS011;40337;52.978;6.310;2024-03-02T05:26:24;4.80;;;2.90;;
54428;SDS011;40337;52.978;6.310;2024-03-02T05:28:50;3.97;;;2.17;;
54428;SDS011;40337;52.978;6.310;2024-03-02T05:31:16;3.88;;;2.30;;
54428;SDS011;40337;52.978;6.310;2024-03-02T05:33:42;4.07;;;2.22;;
54428;SDS011;40337;52.978;6.310;2024-03-02T05:36:08;5.18;;;2.17;;
54428;SDS011;40337;52.978;6.310;2024-03-02T05:38:37;4.20;;;2.08;;
54428;SDS011;40337;52.978;6.310;2024-03-02T05:41:03;3.17;;;1.60;;
54428;SDS011;40337;52.978;6.310;2024-03-02T05:43:28;2.90;;;1.60;;
54428;SDS011;40337;52.978;6.310;2024-03-02T05:45:54;1.80;;;1.02;;
54428;SDS011;40337;52.978;6.310;2024-03-02T05:48:20;1.17;;;0.93;;
54428;SDS011;40337;52.978;6.310;2024-03-02T05:50:46;2.25;;;0.90;;
54428;SDS011;40337;52.978;6.310;2024-03-02T05:53:11;1.75;;;0.75;;
54428;SDS011;40337;52.978;6.310;2024-03-02T05:55:37;1.45;;;0.85;;
54428;SDS011;40337;52.978;6.310;2024-03-02T05:58:03;1.58;;;0.70;;
54428;SDS011;40337;52.978;6.310;2024-03-02T06:00:31;1.73;;;0.77;;
54428;SDS011;40337;52.978;6.310;2024-03-02T06:02:57;1.13;;;0.73;;
54428;SDS011;40337;52.978;6.310;2024-03-02T06:05:23;1.10;;;0.50;;
54428;SDS011;40337;52.978;6.310;2024-03-02T06:07:50;1.42;;;0.70;;
54428;SDS011;40337;52.978;6.310;2024-03-02T06:10:15;1.40;;;0.70;;
54428;SDS011;40337;52.978;6.310;2024-03-02T06:12:42;2.72;;;0.82;;
54428;SDS011;40337;52.978;6.310;2024-03-02T06:15:08;1.13;;;0.80;;
54428;SDS011;40337;52.978;6.310;2024-03-02T06:17:37;2.75;;;1.02;;
54428;SDS011;40337;52.978;6.310;2024-03-02T06:20:03;1.50;;;0.98;;
54428;SDS011;40337;52.978;6.310;2024-03-02T06:22:29;1.02;;;0.70;;
54428;SDS011;40337;52.978;6.310;2024-03-02T06:24:54;1.98;;;0.85;;
54428;SDS011;40337;52.978;6.310;2024-03-02T06:27:20;1.10;;;0.80;;
54428;SDS011;40337;52.978;6.310;2024-03-02T06:29:46;2.15;;;0.90;;
54428;SDS011;40337;52.978;6.310;2024-03-02T06:32:11;2.10;;;0.80;;
54428;SDS011;40337;52.978;6.310;2024-03-02T06:34:37;1.40;;;1.00;;
54428;SDS011;40337;52.978;6.310;2024-03-02T06:37:03;2.20;;;1.00;;
54428;SDS011;40337;52.978;6.310;2024-03-02T06:39:28;2.65;;;1.20;;
54428;SDS011;40337;52.978;6.310;2024-03-02T06:41:56;2.67;;;1.00;;
54428;SDS011;40337;52.978;6.310;2024-03-02T06:44:21;2.60;;;1.15;;
54428;SDS011;40337;52.978;6.310;2024-03-02T06:46:47;1.98;;;1.10;;
54428;SDS011;40337;52.978;6.310;2024-03-02T06:49:12;1.77;;;1.10;;
54428;SDS011;40337;52.978;6.310;2024-03-02T06:51:38;2.92;;;1.20;;
54428;SDS011;40337;52.978;6.310;2024-03-02T06:54:04;1.75;;;0.88;;
54428;SDS011;40337;52.978;6.310;2024-03-02T06:56:30;1.80;;;0.80;;
54428;SDS011;40337;52.978;6.310;2024-03-02T06:58:55;1.65;;;1.10;;
54428;SDS011;40337;52.978;6.310;2024-03-02T07:01:21;1.05;;;0.80;;
54428;SDS011;40337;52.978;6.310;2024-03-02T07:03:47;2.28;;;1.08;;
54428;SDS011;40337;52.978;6.310;2024-03-02T07:06:12;2.30;;;1.00;;
54428;SDS011;40337;52.978;6.310;2024-03-02T07:08:38;1.58;;;0.95;;
54428;SDS011;40337;52.978;6.310;2024-03-02T07:11:03;1.88;;;1.00;;
54428;SDS011;40337;52.978;6.310;2024-03-02T07:13:29;1.42;;;1.00;;
54428;SDS011;40337;52.978;6.310;2024-03-02T07:15:55;1.90;;;0.90;;
54428;SDS011;40337;52.978;6.310;2024-03-02T07:18:29;1.20;;;0.82;;
54428;SDS011;40337;52.978;6.310;2024-03-02T07:20:59;1.42;;;0.90;;
54428;SDS011;40337;52.978;6.310;2024-03-02T07:23:26;1.30;;;0.85;;
54428;SDS011;40337;52.978;6.310;2024-03-02T07:25:52;3.28;;;0.88;;
54428;SDS011;40337;52.978;6.310;2024-03-02T07:28:25;3.13;;;0.90;;
54428;SDS011;40337;52.978;6.310;2024-03-02T07:31:00;2.20;;;1.02;;
54428;SDS011;40337;52.978;6.310;2024-03-02T07:33:27;1.38;;;0.90;;
54428;SDS011;40337;52.978;6.310;2024-03-02T07:35:56;1.73;;;0.80;;
54428;SDS011;40337;52.978;6.310;2024-03-02T07:38:24;1.67;;;0.80;;
54428;SDS011;40337;52.978;6.310;2024-03-02T07:40:50;0.90;;;0.70;;
54428;SDS011;40337;52.978;6.310;2024-03-02T07:43:16;1.83;;;0.93;;
54428;SDS011;40337;52.978;6.310;2024-03-02T07:45:42;1.83;;;0.80;;
54428;SDS011;40337;52.978;6.310;2024-03-02T07:48:09;1.05;;;0.85;;
54428;SDS011;40337;52.978;6.310;2024-03-02T07:50:34;2.00;;;0.90;;
54428;SDS011;40337;52.978;6.310;2024-03-02T07:53:00;1.00;;;0.75;;
54428;SDS011;40337;52.978;6.310;2024-03-02T07:55:26;1.35;;;0.70;;
54428;SDS011;40337;52.978;6.310;2024-03-02T07:57:52;1.02;;;0.73;;
54428;SDS011;40337;52.978;6.310;2024-03-02T08:00:18;1.40;;;0.80;;
54428;SDS011;40337;52.978;6.310;2024-03-02T08:02:44;1.58;;;0.80;;
54428;SDS011;40337;52.978;6.310;2024-03-02T08:05:10;1.52;;;0.73;;
54428;SDS011;40337;52.978;6.310;2024-03-02T08:07:35;1.27;;;0.85;;
54428;SDS011;40337;52.978;6.310;2024-03-02T08:10:01;1.02;;;0.80;;
54428;SDS011;40337;52.978;6.310;2024-03-02T08:12:26;2.25;;;1.05;;
54428;SDS011;40337;52.978;6.310;2024-03-02T08:14:52;2.88;;;1.10;;
54428;SDS011;40337;52.978;6.310;2024-03-02T08:17:18;1.85;;;0.70;;
54428;SDS011;40337;52.978;6.310;2024-03-02T08:19:43;2.33;;;1.15;;
54428;SDS011;40337;52.978;6.310;2024-03-02T08:22:09;1.83;;;0.90;;
54428;SDS011;40337;52.978;6.310;2024-03-02T08:24:36;2.17;;;0.98;;
54428;SDS011;40337;52.978;6.310;2024-03-02T08:27:01;2.70;;;1.00;;
54428;SDS011;40337;52.978;6.310;2024-03-02T08:29:27;2.17;;;0.80;;
54428;SDS011;40337;52.978;6.310;2024-03-02T08:31:53;1.60;;;0.77;;
54428;SDS011;40337;52.978;6.310;2024-03-02T08:34:19;2.60;;;0.90;;
54428;SDS011;40337;52.978;6.310;2024-03-02T08:36:45;1.77;;;0.80;;
54428;SDS011;40337;52.978;6.310;2024-03-02T08:39:11;2.13;;;0.75;;
54428;SDS011;40337;52.978;6.310;2024-03-02T08:41:49;2.10;;;0.90;;
54428;SDS011;40337;52.978;6.310;2024-03-02T08:44:16;2.08;;;0.90;;
54428;SDS011;40337;52.978;6.310;2024-03-02T08:46:42;1.90;;;0.77;;
54428;SDS011;40337;52.978;6.310;2024-03-02T08:49:09;2.47;;;0.90;;
54428;SDS011;40337;52.978;6.310;2024-03-02T08:51:35;1.73;;;0.80;;
54428;SDS011;40337;52.978;6.310;2024-03-02T08:54:00;2.83;;;0.88;;
54428;SDS011;40337;52.978;6.310;2024-03-02T08:56:26;1.88;;;0.98;;
54428;SDS011;40337;52.978;6.310;2024-03-02T08:58:52;2.53;;;1.10;;
54428;SDS011;40337;52.978;6.310;2024-03-02T09:01:18;1.75;;;0.90;;
54428;SDS011;40337;52.978;6.310;2024-03-02T09:03:44;3.70;;;1.08;;
54428;SDS011;40337;52.978;6.310;2024-03-02T09:06:10;2.10;;;1.00;;
54428;SDS011;40337;52.978;6.310;2024-03-02T09:08:36;2.65;;;1.00;;
54428;SDS011;40337;52.978;6.310;2024-03-02T09:11:03;3.25;;;0.95;;
54428;SDS011;40337;52.978;6.310;2024-03-02T09:13:29;3.17;;;0.90;;
54428;SDS011;40337;52.978;6.310;2024-03-02T09:15:56;2.83;;;1.25;;
54428;SDS011;40337;52.978;6.310;2024-03-02T09:18:22;1.85;;;0.93;;
54428;SDS011;40337;52.978;6.310;2024-03-02T09:20:47;2.38;;;1.00;;
54428;SDS011;40337;52.978;6.310;2024-03-02T09:23:13;1.98;;;0.95;;
54428;SDS011;40337;52.978;6.310;2024-03-02T09:25:39;1.35;;;0.90;;
54428;SDS011;40337;52.978;6.310;2024-03-02T09:28:04;1.40;;;0.80;;
54428;SDS011;40337;52.978;6.310;2024-03-02T09:30:30;2.92;;;1.00;;
54428;SDS011;40337;52.978;6.310;2024-03-02T09:32:56;1.83;;;0.93;;
54428;SDS011;40337;52.978;6.310;2024-03-02T09:35:22;2.70;;;0.88;;
54428;SDS011;40337;52.978;6.310;2024-03-02T09:37:47;2.65;;;0.90;;
54428;SDS011;40337;52.978;6.310;2024-03-02T09:40:13;2.08;;;1.00;;
54428;SDS011;40337;52.978;6.310;2024-03-02T09:42:39;2.42;;;1.08;;
54428;SDS011;40337;52.978;6.310;2024-03-02T09:45:05;2.58;;;1.13;;
54428;SDS011;40337;52.978;6.310;2024-03-02T09:47:32;4.03;;;1.20;;
54428;SDS011;40337;52.978;6.310;2024-03-02T09:49:58;3.30;;;1.02;;
54428;SDS011;40337;52.978;6.310;2024-03-02T09:52:24;1.67;;;0.88;;
54428;SDS011;40337;52.978;6.310;2024-03-02T09:54:50;2.63;;;0.90;;
54428;SDS011;40337;52.978;6.310;2024-03-02T09:57:16;2.25;;;0.93;;
54428;SDS011;40337;52.978;6.310;2024-03-02T09:59:42;3.38;;;1.15;;
54428;SDS011;40337;52.978;6.310;2024-03-02T10:02:07;3.80;;;1.10;;
54428;SDS011;40337;52.978;6.310;2024-03-02T10:04:33;2.88;;;1.25;;
54428;SDS011;40337;52.978;6.310;2024-03-02T10:07:09;4.35;;;1.10;;
54428;SDS011;40337;52.978;6.310;2024-03-02T10:09:36;2.83;;;1.10;;
54428;SDS011;40337;52.978;6.310;2024-03-02T10:12:06;3.70;;;1.00;;
54428;SDS011;40337;52.978;6.310;2024-03-02T10:14:33;4.25;;;0.93;;
54428;SDS011;40337;52.978;6.310;2024-03-02T10:17:03;3.83;;;1.10;;
54428;SDS011;40337;52.978;6.310;2024-03-02T10:19:29;3.10;;;0.98;;
54428;SDS011;40337;52.978;6.310;2024-03-02T10:22:04;3.40;;;1.00;;
54428;SDS011;40337;52.978;6.310;2024-03-02T10:27:10;3.92;;;0.90;;
54428;SDS011;40337;52.978;6.310;2024-03-02T10:29:40;2.67;;;1.00;;
54428;SDS011;40337;52.978;6.310;2024-03-02T10:32:08;2.72;;;1.10;;
54428;SDS011;40337;52.978;6.310;2024-03-02T10:34:36;3.80;;;1.25;;
54428;SDS011;40337;52.978;6.310;2024-03-02T10:37:02;3.25;;;0.90;;
54428;SDS011;40337;52.978;6.310;2024-03-02T10:39:28;3.85;;;1.00;;
54428;SDS011;40337;52.978;6.310;2024-03-02T10:41:55;1.60;;;0.90;;
54428;SDS011;40337;52.978;6.310;2024-03-02T10:44:22;2.75;;;0.85;;
54428;SDS011;40337;52.978;6.310;2024-03-02T10:46:48;2.67;;;1.10;;
54428;SDS011;40337;52.978;6.310;2024-03-02T10:49:18;2.83;;;0.88;;
54428;SDS011;40337;52.978;6.310;2024-03-02T10:51:45;1.92;;;0.85;;
54428;SDS011;40337;52.978;6.310;2024-03-02T10:54:11;2.65;;;1.00;;
54428;SDS011;40337;52.978;6.310;2024-03-02T10:59:15;3.03;;;1.00;;
54428;SDS011;40337;52.978;6.310;2024-03-02T11:01:50;3.67;;;0.90;;
54428;SDS011;40337;52.978;6.310;2024-03-02T11:04:21;2.08;;;0.90;;
54428;SDS011;40337;52.978;6.310;2024-03-02T11:06:49;2.63;;;0.80;;
54428;SDS011;40337;52.978;6.310;2024-03-02T11:09:20;2.47;;;0.90;;
54428;SDS011;40337;52.978;6.310;2024-03-02T11:12:03;3.60;;;1.10;;
54428;SDS011;40337;52.978;6.310;2024-03-02T11:14:37;2.75;;;1.10;;
54428;SDS011;40337;52.978;6.310;2024-03-02T11:17:08;3.10;;;1.05;;
54428;SDS011;40337;52.978;6.310;2024-03-02T11:19:35;3.15;;;1.10;;
54428;SDS011;40337;52.978;6.310;2024-03-02T11:22:02;2.60;;;0.98;;
54428;SDS011;40337;52.978;6.310;2024-03-02T11:24:32;2.55;;;1.00;;
54428;SDS011;40337;52.978;6.310;2024-03-02T11:27:02;4.75;;;1.00;;
54428;SDS011;40337;52.978;6.310;2024-03-02T11:32:16;3.25;;;1.00;;
54428;SDS011;40337;52.978;6.310;2024-03-02T11:34:44;2.35;;;0.90;;
54428;SDS011;40337;52.978;6.310;2024-03-02T11:37:18;2.38;;;0.93;;
54428;SDS011;40337;52.978;6.310;2024-03-02T11:39:48;2.15;;;0.90;;
54428;SDS011;40337;52.978;6.310;2024-03-02T11:42:16;2.42;;;0.80;;
54428;SDS011;40337;52.978;6.310;2024-03-02T11:44:43;3.00;;;0.90;;
54428;SDS011;40337;52.978;6.310;2024-03-02T11:47:12;2.72;;;0.90;;
54428;SDS011;40337;52.978;6.310;2024-03-02T11:49:49;3.08;;;1.20;;
54428;SDS011;40337;52.978;6.310;2024-03-02T11:52:16;3.15;;;0.90;;
54428;SDS011;40337;52.978;6.310;2024-03-02T11:54:46;2.70;;;0.82;;
54428;SDS011;40337;52.978;6.310;2024-03-02T11:57:14;2.13;;;0.82;;
54428;SDS011;40337;52.978;6.310;2024-03-02T11:59:40;2.33;;;1.00;;
54428;SDS011;40337;52.978;6.310;2024-03-02T12:02:06;2.58;;;1.02;;
54428;SDS011;40337;52.978;6.310;2024-03-02T12:04:45;2.58;;;1.00;;
54428;SDS011;40337;52.978;6.310;2024-03-02T12:07:13;3.58;;;1.00;;
54428;SDS011;40337;52.978;6.310;2024-03-02T12:09:47;3.90;;;1.10;;
54428;SDS011;40337;52.978;6.310;2024-03-02T12:12:13;3.60;;;1.23;;
54428;SDS011;40337;52.978;6.310;2024-03-02T12:14:52;3.03;;;1.00;;
54428;SDS011;40337;52.978;6.310;2024-03-02T12:17:20;2.85;;;1.08;;
54428;SDS011;40337;52.978;6.310;2024-03-02T12:19:46;2.78;;;0.88;;
54428;SDS011;40337;52.978;6.310;2024-03-02T12:22:12;3.20;;;1.10;;
54428;SDS011;40337;52.978;6.310;2024-03-02T12:24:38;2.63;;;0.88;;
54428;SDS011;40337;52.978;6.310;2024-03-02T12:27:05;2.85;;;0.93;;
54428;SDS011;40337;52.978;6.310;2024-03-02T12:29:32;2.25;;;1.00;;
54428;SDS011;40337;52.978;6.310;2024-03-02T12:31:59;3.70;;;1.15;;
54428;SDS011;40337;52.978;6.310;2024-03-02T12:34:26;2.30;;;1.00;;
54428;SDS011;40337;52.978;6.310;2024-03-02T12:36:52;2.92;;;1.15;;
54428;SDS011;40337;52.978;6.310;2024-03-02T12:39:18;2.85;;;1.10;;
54428;SDS011;40337;52.978;6.310;2024-03-02T12:41:45;2.33;;;0.95;;
54428;SDS011;40337;52.978;6.310;2024-03-02T12:44:11;2.97;;;1.00;;
54428;SDS011;40337;52.978;6.310;2024-03-02T12:46:37;2.42;;;0.90;;
54428;SDS011;40337;52.978;6.310;2024-03-02T12:49:09;2.15;;;1.00;;
54428;SDS011;40337;52.978;6.310;2024-03-02T12:51:36;2.58;;;1.00;;
54428;SDS011;40337;52.978;6.310;2024-03-02T12:54:05;2.03;;;0.90;;
54428;SDS011;40337;52.978;6.310;2024-03-02T12:56:37;2.92;;;1.02;;
54428;SDS011;40337;52.978;6.310;2024-03-02T12:59:03;2.83;;;1.10;;
54428;SDS011;40337;52.978;6.310;2024-03-02T13:01:30;2.92;;;1.20;;
54428;SDS011;40337;52.978;6.310;2024-03-02T13:03:57;2.33;;;1.00;;
54428;SDS011;40337;52.978;6.310;2024-03-02T13:06:24;3.22;;;1.05;;
54428;SDS011;40337;52.978;6.310;2024-03-02T13:08:53;2.97;;;1.17;;
54428;SDS011;40337;52.978;6.310;2024-03-02T13:11:20;2.40;;;0.93;;
54428;SDS011;40337;52.978;6.310;2024-03-02T13:13:47;2.20;;;0.93;;
54428;SDS011;40337;52.978;6.310;2024-03-02T13:16:13;2.67;;;0.90;;
54428;SDS011;40337;52.978;6.310;2024-03-02T13:18:40;3.63;;;1.05;;
54428;SDS011;40337;52.978;6.310;2024-03-02T13:21:06;2.67;;;1.10;;
54428;SDS011;40337;52.978;6.310;2024-03-02T13:23:32;2.38;;;1.10;;
54428;SDS011;40337;52.978;6.310;2024-03-02T13:25:58;2.83;;;1.38;;
54428;SDS011;40337;52.978;6.310;2024-03-02T13:28:27;2.40;;;1.17;;
54428;SDS011;40337;52.978;6.310;2024-03-02T13:30:53;1.88;;;0.80;;
54428;SDS011;40337;52.978;6.310;2024-03-02T13:33:18;2.80;;;1.15;;
54428;SDS011;40337;52.978;6.310;2024-03-02T13:35:50;3.78;;;1.30;;
54428;SDS011;40337;52.978;6.310;2024-03-02T13:38:19;2.40;;;1.10;;
54428;SDS011;40337;52.978;6.310;2024-03-02T13:40:46;2.50;;;1.17;;
54428;SDS011;40337;52.978;6.310;2024-03-02T13:43:12;3.83;;;1.40;;
54428;SDS011;40337;52.978;6.310;2024-03-02T13:45:38;4.07;;;1.67;;
54428;SDS011;40337;52.978;6.310;2024-03-02T13:48:04;3.42;;;1.50;;
54428;SDS011;40337;52.978;6.310;2024-03-02T13:50:30;4.05;;;1.38;;
54428;SDS011;40337;52.978;6.310;2024-03-02T13:52:56;1.95;;;1.10;;
54428;SDS011;40337;52.978;6.310;2024-03-02T13:55:22;3.38;;;1.30;;
54428;SDS011;40337;52.978;6.310;2024-03-02T13:57:48;2.97;;;1.40;;
54428;SDS011;40337;52.978;6.310;2024-03-02T14:00:15;3.28;;;1.50;;
54428;SDS011;40337;52.978;6.310;2024-03-02T14:02:42;4.18;;;1.60;;
54428;SDS011;40337;52.978;6.310;2024-03-02T14:05:08;3.45;;;1.60;;
54428;SDS011;40337;52.978;6.310;2024-03-02T14:07:39;3.88;;;1.75;;
54428;SDS011;40337;52.978;6.310;2024-03-02T14:10:05;4.43;;;1.88;;
54428;SDS011;40337;52.978;6.310;2024-03-02T14:12:31;4.15;;;1.73;;
54428;SDS011;40337;52.978;6.310;2024-03-02T14:14:57;4.32;;;1.80;;
54428;SDS011;40337;52.978;6.310;2024-03-02T14:17:24;2.78;;;1.60;;
54428;SDS011;40337;52.978;6.310;2024-03-02T14:19:50;3.63;;;1.60;;
54428;SDS011;40337;52.978;6.310;2024-03-02T14:22:17;8.20;;;2.13;;
54428;SDS011;40337;52.978;6.310;2024-03-02T14:24:43;4.18;;;2.22;;
54428;SDS011;40337;52.978;6.310;2024-03-02T14:27:09;5.30;;;2.58;;
54428;SDS011;40337;52.978;6.310;2024-03-02T14:29:34;4.15;;;2.42;;
54428;SDS011;40337;52.978;6.310;2024-03-02T14:32:02;4.57;;;2.97;;
54428;SDS011;40337;52.978;6.310;2024-03-02T14:34:29;4.05;;;2.70;;
54428;SDS011;40337;52.978;6.310;2024-03-02T14:36:54;4.72;;;3.17;;
54428;SDS011;40337;52.978;6.310;2024-03-02T14:39:20;5.18;;;3.00;;
54428;SDS011;40337;52.978;6.310;2024-03-02T14:41:46;3.88;;;2.88;;
54428;SDS011;40337;52.978;6.310;2024-03-02T14:44:12;6.15;;;2.75;;
54428;SDS011;40337;52.978;6.310;2024-03-02T14:46:37;4.65;;;2.67;;
54428;SDS011;40337;52.978;6.310;2024-03-02T14:49:03;3.65;;;2.40;;
54428;SDS011;40337;52.978;6.310;2024-03-02T14:51:29;3.70;;;2.30;;
54428;SDS011;40337;52.978;6.310;2024-03-02T14:53:55;4.05;;;2.50;;
54428;SDS011;40337;52.978;6.310;2024-03-02T14:56:21;4.13;;;2.50;;